createdAt,value
2022-08-02T00:03:17.676Z,40
2022-08-02T00:18:15.214Z,40.1
2022-08-02T00:34:28.149Z,40.4
2022-08-02T00:48:18.183Z,40
2022-08-02T01:03:20.739Z,40
2022-08-02T01:18:21.314Z,40.4
2022-08-02T01:33:21.573Z,40.2
2022-08-02T01:48:22.807Z,40.1
2022-08-02T02:03:23.597Z,40
2022-08-02T02:18:24.828Z,40.3
2022-08-02T02:33:30.905Z,40.3
2022-08-02T02:48:26.310Z,39.7
2022-08-02T03:03:06.003Z,39.9
2022-08-02T03:18:05.863Z,40
2022-08-02T03:33:06.877Z,40
2022-08-02T03:48:36.416Z,40
2022-08-02T04:03:12.991Z,40
2022-08-02T04:18:09.070Z,40.5
2022-08-02T04:33:10.949Z,40.1
2022-08-02T04:48:11.187Z,40.4
2022-08-02T05:03:12.709Z,40
2022-08-02T05:18:13.882Z,40.9
2022-08-02T05:33:15.203Z,40.9
2022-08-02T05:48:16.818Z,40.2
2022-08-02T06:03:16.558Z,40.8
2022-08-02T06:18:28.910Z,40.6
2022-08-02T06:33:18.806Z,40.9
2022-08-02T06:48:20.370Z,40.8
2022-08-02T07:03:20.984Z,40.8
2022-08-02T07:18:21.997Z,40
2022-08-02T07:33:42.413Z,41.1
2022-08-02T07:48:42.409Z,44.5
2022-08-02T08:03:24.662Z,45.7
2022-08-02T08:18:27.715Z,46.6
2022-08-02T08:33:27.461Z,47.2
2022-08-02T08:48:32.984Z,46.9
2022-08-02T09:03:06.854Z,47.5
2022-08-02T09:18:05.606Z,48.2
2022-08-02T09:33:07.398Z,49.3
2022-08-02T09:48:07.602Z,52.8
2022-08-02T10:03:22.496Z,52.7
2022-08-02T10:18:40.158Z,48
2022-08-02T10:33:11.268Z,47.7
2022-08-02T10:48:15.496Z,48.6
2022-08-02T11:03:13.943Z,48.1
2022-08-02T11:33:18.946Z,49.4
2022-08-02T11:48:17.231Z,47.4
2022-08-02T12:03:20.550Z,47.7
2022-08-02T12:18:18.517Z,48
2022-08-02T12:33:26.200Z,47.2
2022-08-02T12:48:21.984Z,48.5
2022-08-02T13:04:16.486Z,49
2022-08-02T13:18:23.164Z,48.8
2022-08-02T13:33:23.160Z,48.3
2022-08-02T13:48:25.049Z,48.7
2022-08-02T14:04:09.584Z,47.9
2022-08-02T14:18:26.952Z,47.1
2022-08-02T14:33:28.346Z,45.8
2022-08-02T14:48:28.963Z,47.1
2022-08-02T15:08:03.832Z,47.5
2022-08-02T15:23:10.248Z,45
2022-08-02T15:38:25.424Z,46
2022-08-02T15:53:09.823Z,41.3
2022-08-02T16:08:11.584Z,51.3
2022-08-02T16:23:13.721Z,50.2
2022-08-02T16:38:12.770Z,45.1
2022-08-02T16:53:59.572Z,41.2
